Time;durP1;ratioP1;P1;durP2;ratioP2;P2;SDS_P1;SDS_P2;PMS_P1;PMS_P2;Temp;Humidity;BMP_temperature;BMP_pressure;BME280_temperature;BME280_humidity;BME280_pressure;Samples;Min_cycle;Max_cycle;Signal;HPM_P1;HPM_P2
2023/12/14 00:00:27;;;;;;;43.45;19.17;;;;;;;;;;1049485;28;20056;-68
2023/12/14 00:01:18;;;;;;;40.72;19.77;;;;;;;;;;1048922;28;20052;-67
2023/12/14 00:01:49;;;;;;;43.67;19.45;;;;;;;;;;1049562;28;20151;-68
2023/12/14 00:02:19;;;;;;;45.00;19.58;;;;;;;;;;1049764;28;20046;-68
2023/12/14 00:02:50;;;;;;;42.85;19.13;;;;;;;;;;1049669;28;20040;-68
2023/12/14 00:03:20;;;;;;;42.15;20.75;;;;;;;;;;1050615;28;20044;-67
2023/12/14 00:03:51;;;;;;;45.58;19.83;;;;;;;;;;1048139;28;20058;-68
2023/12/14 00:04:21;;;;;;;47.65;21.27;;;;;;;;;;1051051;28;20043;-67
2023/12/14 00:04:52;;;;;;;47.28;20.40;;;;;;;;;;1049333;28;20090;-67
2023/12/14 00:05:22;;;;;;;46.95;20.38;;;;;;;;;;1050778;28;20472;-67
2023/12/14 00:05:53;;;;;;;41.58;20.35;;;;;;;;;;1050251;28;20079;-68
2023/12/14 00:06:23;;;;;;;44.28;20.48;;;;;;;;;;1050699;28;20131;-68
2023/12/14 00:06:54;;;;;;;43.03;18.73;;;;;;;;;;1049037;28;20052;-68
2023/12/14 00:07:24;;;;;;;41.00;20.17;;;;;;;;;;1050543;28;20197;-67
2023/12/14 00:07:55;;;;;;;43.15;20.92;;;;;;;;;;1050726;28;20075;-68
2023/12/14 00:08:25;;;;;;;40.83;19.27;;;;;;;;;;1050160;28;20052;-68
2023/12/14 00:08:56;;;;;;;48.25;20.55;;;;;;;;;;1050500;28;20111;-67
2023/12/14 00:09:27;;;;;;;42.33;20.70;;;;;;;;;;1048935;28;20044;-67
2023/12/14 00:09:57;;;;;;;42.10;20.33;;;;;;;;;;1049919;28;20052;-68
2023/12/14 00:10:28;;;;;;;45.15;21.27;;;;;;;;;;1049783;28;20052;-68
2023/12/14 00:11:06;;;;;;;46.80;20.45;;;;;;;;;;1050057;28;20068;-68
2023/12/14 00:11:38;;;;;;;45.25;20.02;;;;;;;;;;1048479;28;20093;-67
2023/12/14 00:12:09;;;;;;;41.85;19.85;;;;;;;;;;1050552;28;20048;-68
2023/12/14 00:12:40;;;;;;;52.20;21.48;;;;;;;;;;1050261;28;20048;-68
2023/12/14 00:13:10;;;;;;;45.13;20.90;;;;;;;;;;1048738;28;20059;-68
2023/12/14 00:13:41;;;;;;;42.90;20.48;;;;;;;;;;1049574;28;20040;-68
2023/12/14 00:14:11;;;;;;;43.13;20.27;;;;;;;;;;1050451;28;20427;-68
2023/12/14 00:14:42;;;;;;;44.95;20.73;;;;;;;;;;1049800;28;20056;-68
2023/12/14 00:15:13;;;;;;;48.55;21.08;;;;;;;;;;1048434;28;20063;-68
2023/12/14 00:15:44;;;;;;;45.47;21.95;;;;;;;;;;1049686;28;20167;-68
2023/12/14 00:16:15;;;;;;;53.58;22.48;;;;;;;;;;1049834;28;20553;-68
2023/12/14 00:16:46;;;;;;;48.60;21.25;;;;;;;;;;1050518;28;20400;-68
2023/12/14 00:17:16;;;;;;;48.05;22.92;;;;;;;;;;1050228;28;20093;-68
2023/12/14 00:17:47;;;;;;;56.17;22.80;;;;;;;;;;1049283;28;20189;-68
2023/12/14 00:18:17;;;;;;;48.13;22.05;;;;;;;;;;1049561;28;20036;-68
2023/12/14 00:18:47;;;;;;;49.65;22.63;;;;;;;;;;1050649;28;20044;-68
2023/12/14 00:19:18;;;;;;;49.65;22.55;;;;;;;;;;1049979;28;20603;-68
2023/12/14 00:19:49;;;;;;;48.92;23.63;;;;;;;;;;1047609;28;20047;-68
2023/12/14 00:20:19;;;;;;;45.28;22.38;;;;;;;;;;1048548;28;20040;-68
2023/12/14 00:20:50;;;;;;;47.35;21.85;;;;;;;;;;1047821;28;20427;-68
2023/12/14 00:21:20;;;;;;;50.53;21.38;;;;;;;;;;1048502;28;20055;-68
2023/12/14 00:21:51;;;;;;;53.90;22.80;;;;;;;;;;1047869;28;20040;-68
2023/12/14 00:22:21;;;;;;;50.50;23.42;;;;;;;;;;1048082;28;20506;-69
2023/12/14 00:22:52;;;;;;;53.70;21.67;;;;;;;;;;1049295;28;20055;-68
2023/12/14 00:23:23;;;;;;;50.33;21.55;;;;;;;;;;1051211;28;20036;-68
2023/12/14 00:23:53;;;;;;;44.30;21.58;;;;;;;;;;1048383;28;20032;-68
2023/12/14 00:24:24;;;;;;;53.55;22.63;;;;;;;;;;1049855;28;20047;-67
2023/12/14 00:24:55;;;;;;;47.20;22.48;;;;;;;;;;1048388;28;20043;-68
2023/12/14 00:25:25;;;;;;;49.40;21.75;;;;;;;;;;1048476;28;20481;-68
2023/12/14 00:25:56;;;;;;;52.95;22.73;;;;;;;;;;1048481;28;20048;-67
2023/12/14 00:26:27;;;;;;;46.50;21.67;;;;;;;;;;1049581;28;20056;-68
2023/12/14 00:26:57;;;;;;;54.08;24.02;;;;;;;;;;1050103;28;20384;-68
2023/12/14 00:27:27;;;;;;;52.28;22.20;;;;;;;;;;1047902;28;20775;-68
2023/12/14 00:27:58;;;;;;;54.70;24.40;;;;;;;;;;1048592;28;20048;-68
2023/12/14 00:28:29;;;;;;;45.75;23.10;;;;;;;;;;1050690;28;20036;-68
2023/12/14 00:28:59;;;;;;;58.78;23.23;;;;;;;;;;1049401;28;20043;-68
2023/12/14 00:29:30;;;;;;;51.97;21.55;;;;;;;;;;1048728;28;20067;-67
2023/12/14 00:30:01;;;;;;;55.50;24.35;;;;;;;;;;1050743;28;20063;-68
2023/12/14 00:30:31;;;;;;;55.92;23.58;;;;;;;;;;1050786;28;20779;-67
2023/12/14 00:31:02;;;;;;;52.45;22.75;;;;;;;;;;1049345;28;20036;-68
2023/12/14 00:31:33;;;;;;;49.15;23.48;;;;;;;;;;1049748;28;20047;-68
2023/12/14 00:32:04;;;;;;;58.15;24.20;;;;;;;;;;1049722;28;20036;-68
2023/12/14 00:32:35;;;;;;;53.08;23.13;;;;;;;;;;1049835;28;20043;-68
2023/12/14 00:33:05;;;;;;;54.70;23.02;;;;;;;;;;1050337;28;20504;-68
2023/12/14 00:33:36;;;;;;;55.75;23.55;;;;;;;;;;1051005;28;20444;-68
2023/12/14 00:34:07;;;;;;;54.05;23.63;;;;;;;;;;1049676;28;20048;-68
2023/12/14 00:34:37;;;;;;;55.78;23.63;;;;;;;;;;1050771;28;20705;-67
2023/12/14 00:35:07;;;;;;;52.80;22.58;;;;;;;;;;1049416;28;20139;-68
2023/12/14 00:35:38;;;;;;;56.63;24.65;;;;;;;;;;1050415;28;20048;-68
2023/12/14 00:36:09;;;;;;;53.10;22.40;;;;;;;;;;1050770;28;20055;-68
2023/12/14 00:36:40;;;;;;;58.00;24.23;;;;;;;;;;1048957;28;20655;-67
2023/12/14 00:37:10;;;;;;;59.83;24.10;;;;;;;;;;1046221;28;20540;-67
2023/12/14 00:37:41;;;;;;;57.38;23.75;;;;;;;;;;1045771;28;20083;-67
2023/12/14 00:38:11;;;;;;;59.13;24.63;;;;;;;;;;1048046;28;20147;-67
2023/12/14 00:38:42;;;;;;;66.55;24.77;;;;;;;;;;1049261;28;20040;-68
2023/12/14 00:39:13;;;;;;;61.67;24.65;;;;;;;;;;1047638;28;20051;-68
2023/12/14 00:39:43;;;;;;;61.30;25.13;;;;;;;;;;1050534;28;20047;-67
2023/12/14 00:40:14;;;;;;;68.00;25.70;;;;;;;;;;1050033;28;20044;-67
2023/12/14 00:40:44;;;;;;;61.35;24.45;;;;;;;;;;1048090;28;20111;-68
2023/12/14 00:41:15;;;;;;;64.20;25.55;;;;;;;;;;1049552;28;20838;-67
2023/12/14 00:41:46;;;;;;;64.40;24.30;;;;;;;;;;1050160;28;20046;-68
2023/12/14 00:42:16;;;;;;;63.80;23.40;;;;;;;;;;1047892;28;20753;-67
2023/12/14 00:42:47;;;;;;;64.53;24.50;;;;;;;;;;1050737;28;20167;-67
2023/12/14 00:43:17;;;;;;;57.75;25.35;;;;;;;;;;1050615;28;20035;-67
2023/12/14 00:43:48;;;;;;;63.72;24.27;;;;;;;;;;1049938;28;20028;-68
2023/12/14 00:44:18;;;;;;;57.00;23.65;;;;;;;;;;1049688;28;20067;-68
2023/12/14 00:44:49;;;;;;;59.05;23.80;;;;;;;;;;1050330;28;20040;-67
2023/12/14 00:45:19;;;;;;;53.17;25.58;;;;;;;;;;1049594;28;20075;-67
2023/12/14 00:45:52;;;;;;;55.47;22.30;;;;;;;;;;1049723;28;20052;-68
2023/12/14 00:46:22;;;;;;;58.58;24.08;;;;;;;;;;1050598;28;20059;-68
2023/12/14 00:46:53;;;;;;;54.17;24.10;;;;;;;;;;1048909;28;20055;-67
2023/12/14 00:47:24;;;;;;;60.28;23.25;;;;;;;;;;1049578;28;20035;-67
2023/12/14 00:47:54;;;;;;;48.40;21.42;;;;;;;;;;1048293;28;20070;-68
2023/12/14 00:48:25;;;;;;;54.20;21.67;;;;;;;;;;1050289;28;20120;-68
2023/12/14 00:48:55;;;;;;;59.08;25.63;;;;;;;;;;1049827;28;20040;-68
2023/12/14 00:49:28;;;;;;;59.80;22.60;;;;;;;;;;1049457;28;20045;-68
2023/12/14 00:49:58;;;;;;;60.45;24.15;;;;;;;;;;1049679;28;20066;-67
2023/12/14 00:50:29;;;;;;;64.30;25.70;;;;;;;;;;1050762;28;20662;-67
2023/12/14 00:50:59;;;;;;;61.65;23.90;;;;;;;;;;1049110;28;20067;-67
2023/12/14 00:51:30;;;;;;;64.70;25.77;;;;;;;;;;1051232;28;20081;-68
2023/12/14 00:52:02;;;;;;;70.20;27.15;;;;;;;;;;1049281;28;20044;-67
2023/12/14 00:52:32;;;;;;;61.22;24.20;;;;;;;;;;1050176;28;20052;-67
2023/12/14 00:53:03;;;;;;;66.75;23.65;;;;;;;;;;1049714;28;20127;-68
2023/12/14 00:53:33;;;;;;;60.25;24.65;;;;;;;;;;1049269;28;20048;-68
2023/12/14 00:54:04;;;;;;;64.47;26.42;;;;;;;;;;1049536;28;20048;-68
2023/12/14 00:54:35;;;;;;;63.45;25.58;;;;;;;;;;1050923;28;20495;-68
2023/12/14 00:55:06;;;;;;;55.42;23.23;;;;;;;;;;1050828;28;20566;-68
2023/12/14 00:55:36;;;;;;;64.97;25.92;;;;;;;;;;1048994;28;20048;-67
2023/12/14 00:56:08;;;;;;;68.00;25.33;;;;;;;;;;1050486;28;20052;-67
2023/12/14 00:56:38;;;;;;;66.15;24.70;;;;;;;;;;1050110;28;20185;-68
2023/12/14 00:57:09;;;;;;;59.78;24.02;;;;;;;;;;1050364;28;20120;-67
2023/12/14 00:57:40;;;;;;;65.82;25.92;;;;;;;;;;1049817;28;20075;-67
2023/12/14 00:58:12;;;;;;;54.33;22.60;;;;;;;;;;1050145;28;20549;-68
2023/12/14 00:58:43;;;;;;;57.22;24.75;;;;;;;;;;1050011;28;20102;-70
2023/12/14 00:59:13;;;;;;;55.97;23.45;;;;;;;;;;1048868;28;20445;-68
2023/12/14 00:59:44;;;;;;;59.22;24.00;;;;;;;;;;1049495;28;20051;-68
2023/12/14 01:00:15;;;;;;;62.67;24.90;;;;;;;;;;1049559;28;20048;-67
2023/12/14 01:00:46;;;;;;;57.15;23.67;;;;;;;;;;1045804;28;20127;-68
2023/12/14 01:01:16;;;;;;;53.58;23.23;;;;;;;;;;1050342;28;20547;-67
2023/12/14 01:01:47;;;;;;;54.03;22.77;;;;;;;;;;1049968;28;20044;-69
2023/12/14 01:02:17;;;;;;;57.63;25.90;;;;;;;;;;1050137;28;20044;-68
2023/12/14 01:02:48;;;;;;;54.70;22.67;;;;;;;;;;1049849;28;20115;-68
2023/12/14 01:03:19;;;;;;;57.45;22.75;;;;;;;;;;1048375;28;20048;-67
2023/12/14 01:03:49;;;;;;;47.40;23.40;;;;;;;;;;1049759;28;20055;-68
2023/12/14 01:04:20;;;;;;;50.40;22.73;;;;;;;;;;1048876;28;20192;-68
2023/12/14 01:04:50;;;;;;;70.20;25.27;;;;;;;;;;1050316;28;20093;-68
2023/12/14 01:05:21;;;;;;;51.13;23.25;;;;;;;;;;1050333;28;20052;-67
2023/12/14 01:05:51;;;;;;;53.63;22.60;;;;;;;;;;1050776;28;20047;-68
2023/12/14 01:06:22;;;;;;;60.67;24.52;;;;;;;;;;1049183;28;20039;-68
2023/12/14 01:06:52;;;;;;;57.75;23.77;;;;;;;;;;1050088;28;20035;-68
2023/12/14 01:07:23;;;;;;;55.65;22.45;;;;;;;;;;1048101;28;20040;-68
2023/12/14 01:07:53;;;;;;;48.40;22.27;;;;;;;;;;1048716;28;20052;-68
2023/12/14 01:08:24;;;;;;;57.60;24.42;;;;;;;;;;1049122;28;20119;-68
2023/12/14 01:08:54;;;;;;;51.25;21.35;;;;;;;;;;1050215;28;20096;-67
2023/12/14 01:09:25;;;;;;;51.70;23.67;;;;;;;;;;1050320;28;20044;-67
2023/12/14 01:09:56;;;;;;;53.42;22.55;;;;;;;;;;1049523;28;20066;-68
2023/12/14 01:10:26;;;;;;;59.90;22.42;;;;;;;;;;1050096;28;20047;-68
2023/12/14 01:10:57;;;;;;;58.65;25.33;;;;;;;;;;1048988;28;20041;-67
2023/12/14 01:11:27;;;;;;;51.10;23.17;;;;;;;;;;1050036;28;20093;-68
2023/12/14 01:11:58;;;;;;;55.38;22.73;;;;;;;;;;1049434;28;20055;-67
2023/12/14 01:12:29;;;;;;;54.05;23.77;;;;;;;;;;1049350;28;20079;-68
2023/12/14 01:12:59;;;;;;;51.88;22.58;;;;;;;;;;1047053;28;20048;-68
2023/12/14 01:13:30;;;;;;;55.17;22.88;;;;;;;;;;1050005;28;20707;-68
2023/12/14 01:14:00;;;;;;;56.35;23.55;;;;;;;;;;1050738;28;20036;-68
2023/12/14 01:14:31;;;;;;;49.63;22.50;;;;;;;;;;1049525;28;20135;-67
2023/12/14 01:15:02;;;;;;;50.92;22.45;;;;;;;;;;1048981;28;20052;-68
2023/12/14 01:15:32;;;;;;;52.30;22.33;;;;;;;;;;1050653;28;20044;-68
2023/12/14 01:16:03;;;;;;;55.78;23.45;;;;;;;;;;1049650;28;20468;-67
2023/12/14 01:16:34;;;;;;;54.55;24.83;;;;;;;;;;1049643;28;20388;-68
2023/12/14 01:17:04;;;;;;;51.95;23.45;;;;;;;;;;1049962;28;20096;-67
2023/12/14 01:17:37;;;;;;;56.65;23.30;;;;;;;;;;1049745;28;20043;-68
2023/12/14 01:18:08;;;;;;;53.75;23.20;;;;;;;;;;1050129;28;20070;-67
2023/12/14 01:18:38;;;;;;;57.80;24.40;;;;;;;;;;1050436;28;20475;-68
2023/12/14 01:19:09;;;;;;;56.50;23.35;;;;;;;;;;1050618;28;20377;-68
2023/12/14 01:19:40;;;;;;;59.03;22.58;;;;;;;;;;1049222;28;20648;-68
2023/12/14 01:20:11;;;;;;;49.22;21.02;;;;;;;;;;1049623;28;20051;-67
2023/12/14 01:20:42;;;;;;;55.28;22.80;;;;;;;;;;1048875;28;20055;-67
2023/12/14 01:21:12;;;;;;;58.50;22.63;;;;;;;;;;1050315;28;20040;-68
2023/12/14 01:21:44;;;;;;;51.80;22.70;;;;;;;;;;1050790;28;20093;-68
2023/12/14 01:22:14;;;;;;;52.78;22.65;;;;;;;;;;1045284;28;20048;-68
2023/12/14 01:22:45;;;;;;;52.60;22.63;;;;;;;;;;1044527;28;20120;-68
2023/12/14 01:23:15;;;;;;;57.97;22.35;;;;;;;;;;1045869;28;20070;-68
2023/12/14 01:23:46;;;;;;;52.05;22.42;;;;;;;;;;1045787;28;20056;-68
2023/12/14 01:24:16;;;;;;;63.35;23.70;;;;;;;;;;1045262;28;20071;-67
2023/12/14 01:24:47;;;;;;;58.20;22.90;;;;;;;;;;1045827;28;20048;-67
2023/12/14 01:25:17;;;;;;;63.28;24.15;;;;;;;;;;1045048;28;20519;-68
2023/12/14 01:25:48;;;;;;;57.53;22.92;;;;;;;;;;1044652;28;20082;-67
2023/12/14 01:26:19;;;;;;;53.10;23.35;;;;;;;;;;1045768;28;20071;-67
2023/12/14 01:26:49;;;;;;;51.13;22.33;;;;;;;;;;1045397;28;20056;-68
2023/12/14 01:27:20;;;;;;;52.33;21.55;;;;;;;;;;1044547;28;20606;-68
2023/12/14 01:27:50;;;;;;;56.03;23.88;;;;;;;;;;1045475;28;20106;-67
2023/12/14 01:28:21;;;;;;;51.58;21.27;;;;;;;;;;1045005;28;20157;-68
2023/12/14 01:28:51;;;;;;;52.45;21.48;;;;;;;;;;1044965;28;20044;-68
2023/12/14 01:29:22;;;;;;;54.55;22.33;;;;;;;;;;1045264;28;20041;-67
2023/12/14 01:29:53;;;;;;;50.88;21.95;;;;;;;;;;1044038;28;20131;-68
2023/12/14 01:30:23;;;;;;;56.67;22.30;;;;;;;;;;1043452;28;20045;-68
2023/12/14 01:30:54;;;;;;;58.63;23.33;;;;;;;;;;1046841;28;20050;-68
2023/12/14 01:31:25;;;;;;;51.80;22.75;;;;;;;;;;1049905;28;20102;-68
2023/12/14 01:31:56;;;;;;;53.10;23.35;;;;;;;;;;1044264;28;20044;-67
2023/12/14 01:32:26;;;;;;;48.85;21.42;;;;;;;;;;1046266;28;20078;-68
2023/12/14 01:32:57;;;;;;;47.72;20.73;;;;;;;;;;1045565;28;20079;-68
2023/12/14 01:33:27;;;;;;;48.80;21.08;;;;;;;;;;1045601;28;20076;-68
2023/12/14 01:33:58;;;;;;;58.10;20.98;;;;;;;;;;1042867;28;20041;-68
2023/12/14 01:34:28;;;;;;;49.63;20.98;;;;;;;;;;1045565;28;20044;-67
2023/12/14 01:34:59;;;;;;;53.13;22.45;;;;;;;;;;1045746;28;20036;-67
2023/12/14 01:35:29;;;;;;;44.33;18.55;;;;;;;;;;1045619;28;20052;-68
2023/12/14 01:36:00;;;;;;;45.15;20.52;;;;;;;;;;1048811;28;20052;-67
2023/12/14 01:36:31;;;;;;;46.72;20.85;;;;;;;;;;1049925;28;20040;-67
2023/12/14 01:37:01;;;;;;;44.72;19.35;;;;;;;;;;1050439;28;20449;-67
2023/12/14 01:37:32;;;;;;;50.28;20.83;;;;;;;;;;1049047;28;20044;-68
2023/12/14 01:38:02;;;;;;;50.40;21.55;;;;;;;;;;1050745;28;20539;-68
2023/12/14 01:38:33;;;;;;;48.92;20.23;;;;;;;;;;1049234;28;20052;-68
2023/12/14 01:39:03;;;;;;;49.50;20.08;;;;;;;;;;1050600;28;20047;-67
2023/12/14 01:39:34;;;;;;;51.75;21.42;;;;;;;;;;1050436;28;20035;-68
2023/12/14 01:40:06;;;;;;;53.35;20.58;;;;;;;;;;1050308;28;20054;-68
2023/12/14 01:40:36;;;;;;;47.03;20.77;;;;;;;;;;1049300;28;20189;-68
2023/12/14 01:41:07;;;;;;;55.22;20.63;;;;;;;;;;1049116;28;20152;-69
2023/12/14 01:41:37;;;;;;;48.30;20.48;;;;;;;;;;1050486;28;20109;-67
2023/12/14 01:42:08;;;;;;;48.83;20.95;;;;;;;;;;1048500;28;23326;-67
2023/12/14 01:42:39;;;;;;;51.35;20.90;;;;;;;;;;1048418;28;20668;-68
2023/12/14 01:43:12;;;;;;;47.97;20.52;;;;;;;;;;1048385;28;20044;-68
2023/12/14 01:43:43;;;;;;;52.80;20.85;;;;;;;;;;1050669;28;20663;-67
2023/12/14 01:44:13;;;;;;;47.83;20.65;;;;;;;;;;1049083;28;20817;-68
2023/12/14 01:44:44;;;;;;;46.85;20.95;;;;;;;;;;1049143;28;20059;-68
2023/12/14 01:45:16;;;;;;;48.30;21.42;;;;;;;;;;1049298;28;20169;-68
2023/12/14 01:45:47;;;;;;;48.75;21.67;;;;;;;;;;1050629;28;20038;-68
2023/12/14 01:46:18;;;;;;;52.08;22.20;;;;;;;;;;1047937;28;20070;-67
2023/12/14 01:46:48;;;;;;;56.42;21.23;;;;;;;;;;1045687;28;20397;-68
2023/12/14 01:47:19;;;;;;;50.90;21.33;;;;;;;;;;1049216;28;20051;-68
2023/12/14 01:47:49;;;;;;;50.10;21.05;;;;;;;;;;1050514;28;20055;-68
2023/12/14 01:48:20;;;;;;;51.45;20.73;;;;;;;;;;1048427;28;20048;-67
2023/12/14 01:48:52;;;;;;;49.80;19.98;;;;;;;;;;1046241;28;20045;-68
2023/12/14 01:49:23;;;;;;;50.33;20.33;;;;;;;;;;1050592;28;20454;-68
2023/12/14 01:49:54;;;;;;;52.88;20.65;;;;;;;;;;1046085;28;20641;-68
2023/12/14 01:50:24;;;;;;;53.22;21.10;;;;;;;;;;1048535;28;20041;-67
2023/12/14 01:50:55;;;;;;;56.83;21.52;;;;;;;;;;1047927;28;20051;-68
2023/12/14 01:51:26;;;;;;;48.63;20.25;;;;;;;;;;1049248;28;20750;-68
2023/12/14 01:51:56;;;;;;;47.35;19.40;;;;;;;;;;1046545;28;20568;-67
2023/12/14 01:52:27;;;;;;;48.90;20.63;;;;;;;;;;1048096;28;20048;-68
2023/12/14 01:52:57;;;;;;;50.90;19.73;;;;;;;;;;1047934;28;20036;-68
2023/12/14 01:53:28;;;;;;;49.90;18.80;;;;;;;;;;1050025;28;20032;-68
2023/12/14 01:53:59;;;;;;;51.90;20.30;;;;;;;;;;1047025;28;20029;-68
2023/12/14 01:54:29;;;;;;;51.10;19.27;;;;;;;;;;1049744;28;20508;-67
2023/12/14 01:55:02;;;;;;;46.70;19.30;;;;;;;;;;1046117;28;20123;-67
2023/12/14 01:55:33;;;;;;;44.72;19.20;;;;;;;;;;1047633;28;20060;-68
2023/12/14 01:56:03;;;;;;;41.25;18.63;;;;;;;;;;1047763;28;20036;-68
2023/12/14 01:56:34;;;;;;;46.67;20.20;;;;;;;;;;1045072;28;20116;-67
2023/12/14 01:57:05;;;;;;;50.25;20.65;;;;;;;;;;1048797;28;20598;-67
2023/12/14 01:57:35;;;;;;;52.17;20.10;;;;;;;;;;1047452;28;20064;-68
2023/12/14 01:58:06;;;;;;;44.33;18.92;;;;;;;;;;1048286;28;20039;-67
2023/12/14 01:58:36;;;;;;;48.92;20.92;;;;;;;;;;1045988;28;20048;-68
2023/12/14 01:59:07;;;;;;;41.22;19.48;;;;;;;;;;1044650;28;20068;-68
2023/12/14 01:59:37;;;;;;;48.80;20.65;;;;;;;;;;1049865;28;20058;-67
2023/12/14 02:00:21;;;;;;;46.65;19.02;;;;;;;;;;1047950;28;20444;-68
2023/12/14 02:01:07;;;;;;;44.42;19.20;;;;;;;;;;1046263;28;20047;-68
2023/12/14 02:01:42;;;;;;;46.40;18.83;;;;;;;;;;1048929;28;20071;-68
2023/12/14 02:02:13;;;;;;;41.20;19.10;;;;;;;;;;1049642;28;20063;-67
2023/12/14 02:02:43;;;;;;;48.45;19.05;;;;;;;;;;1050326;28;20098;-68
2023/12/14 02:03:15;;;;;;;46.97;19.42;;;;;;;;;;1048892;28;20044;-68
2023/12/14 02:03:46;;;;;;;47.05;19.48;;;;;;;;;;1049813;28;20048;-68
2023/12/14 02:04:16;;;;;;;49.80;21.33;;;;;;;;;;1049786;28;20620;-67
2023/12/14 02:04:47;;;;;;;43.10;19.63;;;;;;;;;;1049939;28;20557;-68
2023/12/14 02:05:18;;;;;;;45.90;19.80;;;;;;;;;;1046156;28;20570;-68
2023/12/14 02:05:48;;;;;;;48.05;20.50;;;;;;;;;;1046269;28;20569;-68
2023/12/14 02:06:19;;;;;;;46.92;20.77;;;;;;;;;;1045295;28;20044;-68
2023/12/14 02:06:50;;;;;;;45.30;19.80;;;;;;;;;;1045892;28;20194;-68
2023/12/14 02:07:20;;;;;;;47.10;18.63;;;;;;;;;;1048413;28;20056;-67
2023/12/14 02:07:51;;;;;;;50.85;20.83;;;;;;;;;;1049582;28;20051;-67
2023/12/14 02:08:21;;;;;;;42.75;18.05;;;;;;;;;;1049642;28;20040;-67
2023/12/14 02:08:53;;;;;;;44.17;20.15;;;;;;;;;;1047743;28;20043;-67
2023/12/14 02:09:23;;;;;;;51.05;20.30;;;;;;;;;;1047188;28;20040;-68
2023/12/14 02:09:54;;;;;;;55.25;20.92;;;;;;;;;;1046802;28;20641;-67
2023/12/14 02:10:24;;;;;;;51.17;20.08;;;;;;;;;;1049503;28;20051;-68
2023/12/14 02:10:55;;;;;;;52.42;22.08;;;;;;;;;;1047879;28;20053;-68
2023/12/14 02:11:25;;;;;;;45.83;19.75;;;;;;;;;;1049806;28;20068;-68
2023/12/14 02:11:56;;;;;;;52.47;20.42;;;;;;;;;;1049142;28;20036;-67
2023/12/14 02:12:26;;;;;;;50.38;20.52;;;;;;;;;;1050547;28;20158;-68
2023/12/14 02:12:57;;;;;;;53.58;20.92;;;;;;;;;;1049414;28;20091;-67
2023/12/14 02:13:28;;;;;;;46.47;20.08;;;;;;;;;;1049907;28;20051;-68
2023/12/14 02:14:03;;;;;;;49.05;19.33;;;;;;;;;;1049783;28;20115;-67
2023/12/14 02:14:34;;;;;;;47.80;18.75;;;;;;;;;;1049028;28;20054;-68
2023/12/14 02:15:05;;;;;;;40.53;17.70;;;;;;;;;;1049581;28;20055;-68
2023/12/14 02:15:36;;;;;;;48.25;20.75;;;;;;;;;;1046084;28;20044;-68
2023/12/14 02:16:06;;;;;;;42.83;19.13;;;;;;;;;;1044817;28;20049;-68
2023/12/14 02:16:38;;;;;;;45.58;19.55;;;;;;;;;;1048208;28;20115;-68
2023/12/14 02:17:08;;;;;;;39.17;19.15;;;;;;;;;;1046415;28;20060;-68
2023/12/14 02:17:39;;;;;;;41.42;18.27;;;;;;;;;;1043875;28;20076;-68
2023/12/14 02:18:09;;;;;;;46.75;18.58;;;;;;;;;;1042286;28;20055;-67
2023/12/14 02:18:40;;;;;;;45.53;19.90;;;;;;;;;;1042444;28;20218;-67
2023/12/14 02:19:11;;;;;;;47.10;19.55;;;;;;;;;;1043872;28;20468;-68
2023/12/14 02:19:41;;;;;;;48.20;19.25;;;;;;;;;;1044437;28;20059;-68
2023/12/14 02:20:12;;;;;;;48.85;19.23;;;;;;;;;;1047778;28;20049;-68
2023/12/14 02:20:43;;;;;;;48.55;20.30;;;;;;;;;;1050254;28;20742;-67
2023/12/14 02:21:13;;;;;;;47.95;19.80;;;;;;;;;;1047856;28;20045;-68
2023/12/14 02:21:44;;;;;;;55.40;20.20;;;;;;;;;;1048562;28;20127;-67
2023/12/14 02:22:16;;;;;;;43.65;18.25;;;;;;;;;;1048177;28;20132;-67
2023/12/14 02:22:54;;;;;;;42.33;18.08;;;;;;;;;;1049671;28;20048;-68
2023/12/14 02:23:25;;;;;;;44.05;18.65;;;;;;;;;;1045184;28;20159;-68
2023/12/14 02:23:56;;;;;;;46.60;18.25;;;;;;;;;;1047164;28;20041;-69
2023/12/14 02:24:26;;;;;;;47.88;20.10;;;;;;;;;;1049261;28;20477;-68
2023/12/14 02:24:57;;;;;;;46.58;18.50;;;;;;;;;;1047730;28;20040;-68
2023/12/14 02:25:27;;;;;;;44.35;19.52;;;;;;;;;;1045798;28;20051;-67
2023/12/14 02:25:58;;;;;;;46.88;19.30;;;;;;;;;;1045535;28;20032;-68
2023/12/14 02:26:28;;;;;;;38.55;18.33;;;;;;;;;;1043951;28;20723;-68
2023/12/14 02:26:59;;;;;;;42.25;17.75;;;;;;;;;;1048007;28;20599;-68
2023/12/14 02:27:30;;;;;;;46.47;19.90;;;;;;;;;;1049459;28;20043;-68
2023/12/14 02:28:01;;;;;;;40.38;18.08;;;;;;;;;;1046035;28;20050;-67
2023/12/14 02:28:31;;;;;;;43.22;18.05;;;;;;;;;;1045171;28;20055;-68
2023/12/14 02:29:02;;;;;;;41.30;18.15;;;;;;;;;;1045897;28;20060;-68
2023/12/14 02:29:32;;;;;;;41.70;18.52;;;;;;;;;;1049202;28;20093;-69
2023/12/14 02:30:03;;;;;;;37.90;17.10;;;;;;;;;;1047270;28;20508;-67
2023/12/14 02:30:33;;;;;;;39.20;16.80;;;;;;;;;;1048523;28;20058;-67
2023/12/14 02:31:04;;;;;;;45.42;19.45;;;;;;;;;;1045815;28;20059;-67
2023/12/14 02:31:35;;;;;;;42.90;19.35;;;;;;;;;;1043582;28;20090;-68
2023/12/14 02:32:06;;;;;;;41.67;19.35;;;;;;;;;;1042885;28;20052;-68
2023/12/14 02:32:37;;;;;;;38.95;17.60;;;;;;;;;;1045005;28;20036;-67
2023/12/14 02:33:07;;;;;;;44.15;19.23;;;;;;;;;;1048817;28;20044;-67
2023/12/14 02:33:38;;;;;;;40.25;18.42;;;;;;;;;;1048065;28;20048;-67
2023/12/14 02:34:08;;;;;;;35.28;17.55;;;;;;;;;;1047860;28;20059;-68
2023/12/14 02:34:39;;;;;;;41.08;16.95;;;;;;;;;;1049561;28;20481;-68
2023/12/14 02:35:10;;;;;;;42.72;17.95;;;;;;;;;;1049610;28;20048;-68
2023/12/14 02:35:40;;;;;;;44.10;19.20;;;;;;;;;;1048582;28;20047;-68
2023/12/14 02:36:11;;;;;;;46.20;18.25;;;;;;;;;;1048041;28;21588;-67
2023/12/14 02:36:42;;;;;;;43.20;18.90;;;;;;;;;;1050136;28;20090;-68
2023/12/14 02:37:12;;;;;;;49.50;18.83;;;;;;;;;;1049474;28;20055;-68
2023/12/14 02:37:43;;;;;;;45.28;18.60;;;;;;;;;;1049925;28;20040;-68
2023/12/14 02:38:13;;;;;;;45.85;18.58;;;;;;;;;;1046877;28;20048;-68
2023/12/14 02:38:44;;;;;;;42.13;18.48;;;;;;;;;;1050069;28;20143;-67
2023/12/14 02:39:14;;;;;;;47.63;18.50;;;;;;;;;;1048407;28;20134;-67
2023/12/14 02:39:47;;;;;;;41.13;18.17;;;;;;;;;;1048280;28;20055;-67
2023/12/14 02:40:18;;;;;;;48.40;19.00;;;;;;;;;;1048749;28;20384;-68
2023/12/14 02:40:50;;;;;;;55.22;19.05;;;;;;;;;;1047288;28;20927;-67
2023/12/14 02:41:21;;;;;;;54.65;19.67;;;;;;;;;;1048416;28;20036;-68
2023/12/14 02:41:51;;;;;;;49.97;18.95;;;;;;;;;;1049596;28;20599;-67
2023/12/14 02:42:22;;;;;;;43.55;18.08;;;;;;;;;;1049851;28;20140;-67
2023/12/14 02:42:52;;;;;;;40.20;16.90;;;;;;;;;;1048668;28;20055;-67
2023/12/14 02:43:23;;;;;;;50.95;18.88;;;;;;;;;;1049337;28;20032;-67
2023/12/14 02:43:54;;;;;;;43.58;18.58;;;;;;;;;;1047199;28;20177;-68
2023/12/14 02:44:24;;;;;;;49.88;19.00;;;;;;;;;;1050978;28;20582;-67
2023/12/14 02:44:56;;;;;;;43.58;18.20;;;;;;;;;;1048575;28;20090;-68
2023/12/14 02:45:26;;;;;;;49.35;18.33;;;;;;;;;;1049339;28;20102;-67
2023/12/14 02:46:01;;;;;;;42.10;17.85;;;;;;;;;;1046771;28;20044;-68
2023/12/14 02:46:32;;;;;;;50.35;18.83;;;;;;;;;;1045295;28;20123;-68
2023/12/14 02:47:02;;;;;;;45.08;18.67;;;;;;;;;;1046132;28;20123;-67
2023/12/14 02:47:33;;;;;;;40.40;17.73;;;;;;;;;;1049146;28;20040;-67
2023/12/14 02:48:04;;;;;;;42.60;17.48;;;;;;;;;;1044723;28;20036;-67
2023/12/14 02:48:35;;;;;;;45.53;19.02;;;;;;;;;;1043719;28;20052;-68
2023/12/14 02:49:05;;;;;;;41.22;19.08;;;;;;;;;;1042801;28;20068;-68
2023/12/14 02:49:36;;;;;;;43.42;18.42;;;;;;;;;;1043688;28;20488;-68
2023/12/14 02:50:07;;;;;;;49.17;19.40;;;;;;;;;;1041479;28;20074;-67
2023/12/14 02:50:37;;;;;;;44.92;18.50;;;;;;;;;;1042703;28;20047;-67
2023/12/14 02:51:12;;;;;;;44.05;18.77;;;;;;;;;;1041591;28;20044;-67
2023/12/14 02:51:43;;;;;;;42.47;18.77;;;;;;;;;;1045497;28;20032;-67
2023/12/14 02:52:13;;;;;;;46.85;18.20;;;;;;;;;;1046185;28;20044;-67
2023/12/14 02:52:44;;;;;;;41.20;18.88;;;;;;;;;;1042475;28;20041;-68
2023/12/14 02:53:14;;;;;;;43.85;19.05;;;;;;;;;;1046143;28;20101;-68
2023/12/14 02:53:45;;;;;;;43.67;17.67;;;;;;;;;;1048851;28;20491;-67
2023/12/14 02:54:16;;;;;;;45.17;17.83;;;;;;;;;;1053296;28;20035;-68
2023/12/14 02:54:46;;;;;;;43.60;18.30;;;;;;;;;;1051387;28;20466;-68
2023/12/14 02:55:17;;;;;;;47.33;19.42;;;;;;;;;;1054240;28;20119;-67
2023/12/14 02:55:47;;;;;;;43.65;18.08;;;;;;;;;;1048058;28;20552;-67
2023/12/14 02:56:18;;;;;;;42.20;17.65;;;;;;;;;;1047989;28;20036;-68
2023/12/14 02:56:49;;;;;;;40.03;17.88;;;;;;;;;;1047288;28;20167;-67
2023/12/14 02:57:19;;;;;;;43.25;17.77;;;;;;;;;;1049252;28;20055;-68
2023/12/14 02:57:50;;;;;;;39.20;16.65;;;;;;;;;;1047378;28;20257;-68
2023/12/14 02:58:20;;;;;;;44.17;18.52;;;;;;;;;;1047908;28;20454;-67
2023/12/14 02:58:53;;;;;;;43.65;17.48;;;;;;;;;;1043531;28;20405;-68
2023/12/14 02:59:24;;;;;;;46.25;19.80;;;;;;;;;;1046008;28;21985;-67
2023/12/14 02:59:54;;;;;;;42.55;17.75;;;;;;;;;;1048860;28;20380;-68